sensor_id;sensor_type;location;lat;lon;timestamp;temperature;humidity
74294;DHT22;64044;59.904;10.738;2022-12-29T00:01:34;1.30;66.40
74294;DHT22;64044;59.904;10.738;2022-12-29T00:04:00;1.30;66.30
74294;DHT22;64044;59.904;10.738;2022-12-29T00:06:26;1.20;66.20
74294;DHT22;64044;59.904;10.738;2022-12-29T00:08:52;1.20;66.20
74294;DHT22;64044;59.904;10.738;2022-12-29T00:11:25;1.20;66.40
74294;DHT22;64044;59.904;10.738;2022-12-29T00:13:53;1.20;66.40
74294;DHT22;64044;59.904;10.738;2022-12-29T00:16:41;1.20;66.40
74294;DHT22;64044;59.904;10.738;2022-12-29T00:19:07;1.20;66.50
74294;DHT22;64044;59.904;10.738;2022-12-29T00:21:52;1.20;66.50
74294;DHT22;64044;59.904;10.738;2022-12-29T00:24:36;1.20;66.50
74294;DHT22;64044;59.904;10.738;2022-12-29T00:27:21;1.20;66.60
74294;DHT22;64044;59.904;10.738;2022-12-29T00:30:13;1.10;66.70
74294;DHT22;64044;59.904;10.738;2022-12-29T00:32:58;1.20;66.80
74294;DHT22;64044;59.904;10.738;2022-12-29T00:35:51;1.20;66.80
74294;DHT22;64044;59.904;10.738;2022-12-29T00:38:18;1.10;67.00
74294;DHT22;64044;59.904;10.738;2022-12-29T00:41:03;1.10;67.00
74294;DHT22;64044;59.904;10.738;2022-12-29T00:43:47;1.20;67.10
74294;DHT22;64044;59.904;10.738;2022-12-29T00:46:36;1.20;67.10
74294;DHT22;64044;59.904;10.738;2022-12-29T00:49:02;1.20;67.20
74294;DHT22;64044;59.904;10.738;2022-12-29T00:51:47;1.20;67.20
74294;DHT22;64044;59.904;10.738;2022-12-29T00:54:14;1.20;67.10
74294;DHT22;64044;59.904;10.738;2022-12-29T00:56:40;1.20;67.20
74294;DHT22;64044;59.904;10.738;2022-12-29T00:59:10;1.20;67.10
74294;DHT22;64044;59.904;10.738;2022-12-29T01:01:37;1.20;67.20
74294;DHT22;64044;59.904;10.738;2022-12-29T01:04:04;1.20;67.10
74294;DHT22;64044;59.904;10.738;2022-12-29T01:06:30;1.20;67.20
74294;DHT22;64044;59.904;10.738;2022-12-29T01:08:56;1.20;67.20
74294;DHT22;64044;59.904;10.738;2022-12-29T01:11:40;1.20;67.20
74294;DHT22;64044;59.904;10.738;2022-12-29T01:14:06;1.20;67.20
74294;DHT22;64044;59.904;10.738;2022-12-29T01:16:32;1.20;67.30
74294;DHT22;64044;59.904;10.738;2022-12-29T01:18:58;1.30;67.20
74294;DHT22;64044;59.904;10.738;2022-12-29T01:21:29;1.20;67.10
74294;DHT22;64044;59.904;10.738;2022-12-29T01:23:55;1.30;67.20
74294;DHT22;64044;59.904;10.738;2022-12-29T01:26:21;1.20;67.10
74294;DHT22;64044;59.904;10.738;2022-12-29T01:28:47;1.20;67.10
74294;DHT22;64044;59.904;10.738;2022-12-29T01:31:14;1.20;67.20
74294;DHT22;64044;59.904;10.738;2022-12-29T01:33:40;1.20;67.20
74294;DHT22;64044;59.904;10.738;2022-12-29T01:36:11;1.20;67.40
74294;DHT22;64044;59.904;10.738;2022-12-29T01:38:38;1.20;67.50
74294;DHT22;64044;59.904;10.738;2022-12-29T01:41:05;1.20;67.50
74294;DHT22;64044;59.904;10.738;2022-12-29T01:43:44;1.20;67.50
74294;DHT22;64044;59.904;10.738;2022-12-29T01:46:34;1.20;67.80
74294;DHT22;64044;59.904;10.738;2022-12-29T01:51:43;1.30;67.90
74294;DHT22;64044;59.904;10.738;2022-12-29T01:54:18;1.20;67.40
74294;DHT22;64044;59.904;10.738;2022-12-29T01:56:47;1.20;67.70
74294;DHT22;64044;59.904;10.738;2022-12-29T01:59:20;1.20;67.60
74294;DHT22;64044;59.904;10.738;2022-12-29T02:01:48;1.20;67.80
74294;DHT22;64044;59.904;10.738;2022-12-29T02:04:14;1.20;68.00
74294;DHT22;64044;59.904;10.738;2022-12-29T02:06:51;1.10;67.90
74294;DHT22;64044;59.904;10.738;2022-12-29T02:09:19;1.20;67.90
74294;DHT22;64044;59.904;10.738;2022-12-29T02:11:44;1.10;68.10
74294;DHT22;64044;59.904;10.738;2022-12-29T02:14:12;1.10;68.00
74294;DHT22;64044;59.904;10.738;2022-12-29T02:39:26;1.10;68.60
74294;DHT22;64044;59.904;10.738;2022-12-29T02:53:06;1.20;67.90
74294;DHT22;64044;59.904;10.738;2022-12-29T02:55:33;1.20;68.00
74294;DHT22;64044;59.904;10.738;2022-12-29T02:58:19;1.30;68.00
74294;DHT22;64044;59.904;10.738;2022-12-29T03:08:34;1.30;68.00
74294;DHT22;64044;59.904;10.738;2022-12-29T03:11:10;1.30;67.90
74294;DHT22;64044;59.904;10.738;2022-12-29T03:14:08;1.30;68.10
74294;DHT22;64044;59.904;10.738;2022-12-29T03:17:08;1.30;68.20
74294;DHT22;64044;59.904;10.738;2022-12-29T03:19:38;1.40;68.10
74294;DHT22;64044;59.904;10.738;2022-12-29T03:22:07;1.40;68.10
74294;DHT22;64044;59.904;10.738;2022-12-29T03:24:55;1.40;68.50
74294;DHT22;64044;59.904;10.738;2022-12-29T03:27:39;1.40;68.00
74294;DHT22;64044;59.904;10.738;2022-12-29T03:30:06;1.40;68.40
74294;DHT22;64044;59.904;10.738;2022-12-29T03:32:36;1.40;68.70
74294;DHT22;64044;59.904;10.738;2022-12-29T03:35:05;1.40;68.80
74294;DHT22;64044;59.904;10.738;2022-12-29T03:40:33;1.40;69.10
74294;DHT22;64044;59.904;10.738;2022-12-29T03:43:01;1.40;68.80
74294;DHT22;64044;59.904;10.738;2022-12-29T03:45:28;1.40;68.80
74294;DHT22;64044;59.904;10.738;2022-12-29T03:47:54;1.40;68.90
74294;DHT22;64044;59.904;10.738;2022-12-29T03:50:19;1.40;69.30
74294;DHT22;64044;59.904;10.738;2022-12-29T03:52:45;1.40;69.20
74294;DHT22;64044;59.904;10.738;2022-12-29T03:55:11;1.40;69.20
74294;DHT22;64044;59.904;10.738;2022-12-29T03:57:37;1.40;69.40
74294;DHT22;64044;59.904;10.738;2022-12-29T04:00:04;1.40;69.50
74294;DHT22;64044;59.904;10.738;2022-12-29T04:02:30;1.40;69.50
74294;DHT22;64044;59.904;10.738;2022-12-29T04:04:56;1.50;69.70
74294;DHT22;64044;59.904;10.738;2022-12-29T04:07:22;1.50;69.60
74294;DHT22;64044;59.904;10.738;2022-12-29T04:09:47;1.50;69.50
74294;DHT22;64044;59.904;10.738;2022-12-29T04:12:13;1.50;69.70
74294;DHT22;64044;59.904;10.738;2022-12-29T04:14:40;1.50;69.70
74294;DHT22;64044;59.904;10.738;2022-12-29T04:17:06;1.50;70.00
74294;DHT22;64044;59.904;10.738;2022-12-29T04:19:31;1.50;69.90
74294;DHT22;64044;59.904;10.738;2022-12-29T04:21:57;1.60;69.70
74294;DHT22;64044;59.904;10.738;2022-12-29T04:24:23;1.60;70.00
74294;DHT22;64044;59.904;10.738;2022-12-29T04:26:49;1.60;69.80
74294;DHT22;64044;59.904;10.738;2022-12-29T04:29:14;1.60;69.70
74294;DHT22;64044;59.904;10.738;2022-12-29T04:31:40;1.60;70.30
74294;DHT22;64044;59.904;10.738;2022-12-29T04:34:06;1.60;69.80
74294;DHT22;64044;59.904;10.738;2022-12-29T04:36:32;1.60;69.60
74294;DHT22;64044;59.904;10.738;2022-12-29T04:38:57;1.60;70.00
74294;DHT22;64044;59.904;10.738;2022-12-29T04:41:23;1.60;70.00
74294;DHT22;64044;59.904;10.738;2022-12-29T04:43:49;1.60;70.00
74294;DHT22;64044;59.904;10.738;2022-12-29T04:46:15;1.60;70.30
74294;DHT22;64044;59.904;10.738;2022-12-29T04:48:41;1.60;70.20
74294;DHT22;64044;59.904;10.738;2022-12-29T04:51:07;1.60;70.50
74294;DHT22;64044;59.904;10.738;2022-12-29T04:53:32;1.60;70.40
74294;DHT22;64044;59.904;10.738;2022-12-29T04:55:58;1.60;70.60
74294;DHT22;64044;59.904;10.738;2022-12-29T04:58:24;1.70;70.90
74294;DHT22;64044;59.904;10.738;2022-12-29T05:00:51;1.70;70.70
74294;DHT22;64044;59.904;10.738;2022-12-29T05:03:17;1.70;71.00
74294;DHT22;64044;59.904;10.738;2022-12-29T05:05:43;1.70;70.70
74294;DHT22;64044;59.904;10.738;2022-12-29T05:08:08;1.70;70.60
74294;DHT22;64044;59.904;10.738;2022-12-29T05:10:34;1.70;70.70
74294;DHT22;64044;59.904;10.738;2022-12-29T05:13:00;1.70;70.50
74294;DHT22;64044;59.904;10.738;2022-12-29T05:15:26;1.80;70.50
74294;DHT22;64044;59.904;10.738;2022-12-29T05:17:52;1.80;70.60
74294;DHT22;64044;59.904;10.738;2022-12-29T05:20:18;1.80;70.90
74294;DHT22;64044;59.904;10.738;2022-12-29T05:22:43;1.80;71.10
74294;DHT22;64044;59.904;10.738;2022-12-29T05:25:09;1.90;70.50
74294;DHT22;64044;59.904;10.738;2022-12-29T05:27:35;1.90;70.50
74294;DHT22;64044;59.904;10.738;2022-12-29T05:30:00;1.90;70.70
74294;DHT22;64044;59.904;10.738;2022-12-29T05:32:26;1.90;71.10
74294;DHT22;64044;59.904;10.738;2022-12-29T05:34:52;1.90;70.90
74294;DHT22;64044;59.904;10.738;2022-12-29T05:37:18;1.90;70.80
74294;DHT22;64044;59.904;10.738;2022-12-29T05:39:43;2.00;70.90
74294;DHT22;64044;59.904;10.738;2022-12-29T05:42:34;2.00;70.70
74294;DHT22;64044;59.904;10.738;2022-12-29T05:45:00;2.00;71.30
74294;DHT22;64044;59.904;10.738;2022-12-29T05:47:25;2.00;70.50
74294;DHT22;64044;59.904;10.738;2022-12-29T05:49:51;2.10;70.70
74294;DHT22;64044;59.904;10.738;2022-12-29T05:52:17;2.10;71.10
74294;DHT22;64044;59.904;10.738;2022-12-29T05:54:43;2.10;70.80
74294;DHT22;64044;59.904;10.738;2022-12-29T05:57:08;2.10;71.10
74294;DHT22;64044;59.904;10.738;2022-12-29T05:59:35;2.10;70.50
74294;DHT22;64044;59.904;10.738;2022-12-29T06:02:01;2.20;70.90
74294;DHT22;64044;59.904;10.738;2022-12-29T06:06:58;2.20;71.10
74294;DHT22;64044;59.904;10.738;2022-12-29T06:09:23;2.20;71.10
74294;DHT22;64044;59.904;10.738;2022-12-29T06:11:49;2.30;71.20
74294;DHT22;64044;59.904;10.738;2022-12-29T06:14:15;2.30;71.20
74294;DHT22;64044;59.904;10.738;2022-12-29T06:16:40;2.30;71.20
74294;DHT22;64044;59.904;10.738;2022-12-29T06:19:07;2.40;71.10
74294;DHT22;64044;59.904;10.738;2022-12-29T06:21:32;2.40;71.00
74294;DHT22;64044;59.904;10.738;2022-12-29T06:23:58;2.40;71.00
74294;DHT22;64044;59.904;10.738;2022-12-29T06:26:24;2.50;71.10
74294;DHT22;64044;59.904;10.738;2022-12-29T06:28:50;2.50;71.10
74294;DHT22;64044;59.904;10.738;2022-12-29T06:31:15;2.50;71.40
74294;DHT22;64044;59.904;10.738;2022-12-29T06:33:41;2.60;71.40
74294;DHT22;64044;59.904;10.738;2022-12-29T06:36:07;2.60;71.40
74294;DHT22;64044;59.904;10.738;2022-12-29T06:38:33;2.60;71.40
74294;DHT22;64044;59.904;10.738;2022-12-29T06:41:00;2.70;71.50
74294;DHT22;64044;59.904;10.738;2022-12-29T06:43:26;2.70;71.50
74294;DHT22;64044;59.904;10.738;2022-12-29T06:45:51;2.80;71.80
74294;DHT22;64044;59.904;10.738;2022-12-29T06:48:17;2.80;71.50
74294;DHT22;64044;59.904;10.738;2022-12-29T06:50:43;2.80;71.60
74294;DHT22;64044;59.904;10.738;2022-12-29T06:53:08;2.90;71.70
74294;DHT22;64044;59.904;10.738;2022-12-29T06:55:34;2.90;71.50
74294;DHT22;64044;59.904;10.738;2022-12-29T06:58:00;3.00;71.60
74294;DHT22;64044;59.904;10.738;2022-12-29T07:00:26;3.00;71.40
74294;DHT22;64044;59.904;10.738;2022-12-29T07:02:52;3.00;71.60
74294;DHT22;64044;59.904;10.738;2022-12-29T07:05:19;3.00;72.30
74294;DHT22;64044;59.904;10.738;2022-12-29T07:07:45;3.10;71.60
74294;DHT22;64044;59.904;10.738;2022-12-29T07:10:11;3.10;71.70
74294;DHT22;64044;59.904;10.738;2022-12-29T07:12:37;3.20;71.70
74294;DHT22;64044;59.904;10.738;2022-12-29T07:15:03;3.10;71.70
74294;DHT22;64044;59.904;10.738;2022-12-29T07:17:28;3.20;71.50
74294;DHT22;64044;59.904;10.738;2022-12-29T07:19:54;3.20;71.70
74294;DHT22;64044;59.904;10.738;2022-12-29T07:22:20;3.30;71.70
74294;DHT22;64044;59.904;10.738;2022-12-29T07:24:45;3.30;71.80
74294;DHT22;64044;59.904;10.738;2022-12-29T07:27:11;3.30;71.70
74294;DHT22;64044;59.904;10.738;2022-12-29T07:29:37;3.40;71.90
74294;DHT22;64044;59.904;10.738;2022-12-29T07:32:04;3.40;71.90
74294;DHT22;64044;59.904;10.738;2022-12-29T07:34:29;3.40;71.90
74294;DHT22;64044;59.904;10.738;2022-12-29T07:36:55;3.40;71.80
74294;DHT22;64044;59.904;10.738;2022-12-29T07:39:21;3.50;71.90
74294;DHT22;64044;59.904;10.738;2022-12-29T07:41:46;3.50;72.00
74294;DHT22;64044;59.904;10.738;2022-12-29T07:44:12;3.50;72.00
74294;DHT22;64044;59.904;10.738;2022-12-29T07:46:38;3.50;72.00
74294;DHT22;64044;59.904;10.738;2022-12-29T07:49:04;3.50;71.90
74294;DHT22;64044;59.904;10.738;2022-12-29T07:51:29;3.60;72.10
74294;DHT22;64044;59.904;10.738;2022-12-29T07:53:55;3.60;72.20
74294;DHT22;64044;59.904;10.738;2022-12-29T07:56:21;3.70;72.50
74294;DHT22;64044;59.904;10.738;2022-12-29T07:58:46;3.70;72.60
74294;DHT22;64044;59.904;10.738;2022-12-29T08:01:12;3.70;72.40
74294;DHT22;64044;59.904;10.738;2022-12-29T08:03:38;3.70;72.50
74294;DHT22;64044;59.904;10.738;2022-12-29T08:06:09;3.80;72.50
74294;DHT22;64044;59.904;10.738;2022-12-29T08:08:35;3.80;72.70
74294;DHT22;64044;59.904;10.738;2022-12-29T08:11:00;3.80;72.70
74294;DHT22;64044;59.904;10.738;2022-12-29T08:13:26;3.90;72.80
74294;DHT22;64044;59.904;10.738;2022-12-29T08:15:52;3.90;72.80
74294;DHT22;64044;59.904;10.738;2022-12-29T08:18:17;3.90;72.70
74294;DHT22;64044;59.904;10.738;2022-12-29T08:20:43;3.90;72.80
74294;DHT22;64044;59.904;10.738;2022-12-29T08:23:09;4.00;72.90
74294;DHT22;64044;59.904;10.738;2022-12-29T08:25:35;4.10;72.90
74294;DHT22;64044;59.904;10.738;2022-12-29T08:28:01;4.10;72.90
74294;DHT22;64044;59.904;10.738;2022-12-29T08:30:27;4.10;72.90
74294;DHT22;64044;59.904;10.738;2022-12-29T08:32:53;4.20;72.80
74294;DHT22;64044;59.904;10.738;2022-12-29T08:35:19;4.20;72.80
74294;DHT22;64044;59.904;10.738;2022-12-29T08:37:44;4.20;73.00
74294;DHT22;64044;59.904;10.738;2022-12-29T08:40:10;4.30;73.30
74294;DHT22;64044;59.904;10.738;2022-12-29T08:42:36;4.30;73.00
74294;DHT22;64044;59.904;10.738;2022-12-29T08:45:02;4.30;72.90
74294;DHT22;64044;59.904;10.738;2022-12-29T08:47:27;4.40;73.10
74294;DHT22;64044;59.904;10.738;2022-12-29T08:49:53;4.40;72.90
74294;DHT22;64044;59.904;10.738;2022-12-29T08:52:19;4.40;72.80
74294;DHT22;64044;59.904;10.738;2022-12-29T08:54:45;4.40;72.80
74294;DHT22;64044;59.904;10.738;2022-12-29T08:57:10;4.50;73.00
74294;DHT22;64044;59.904;10.738;2022-12-29T08:59:36;4.50;73.10
74294;DHT22;64044;59.904;10.738;2022-12-29T09:02:02;4.50;73.00
74294;DHT22;64044;59.904;10.738;2022-12-29T09:04:28;4.60;73.00
74294;DHT22;64044;59.904;10.738;2022-12-29T09:06:54;4.60;73.10
74294;DHT22;64044;59.904;10.738;2022-12-29T09:09:20;4.60;73.20
74294;DHT22;64044;59.904;10.738;2022-12-29T09:11:46;4.60;73.00
74294;DHT22;64044;59.904;10.738;2022-12-29T09:14:12;4.70;73.20
74294;DHT22;64044;59.904;10.738;2022-12-29T09:16:38;4.70;73.40
74294;DHT22;64044;59.904;10.738;2022-12-29T09:19:04;4.70;73.50
74294;DHT22;64044;59.904;10.738;2022-12-29T09:21:31;4.70;73.50
74294;DHT22;64044;59.904;10.738;2022-12-29T09:23:57;4.70;73.40
74294;DHT22;64044;59.904;10.738;2022-12-29T09:26:22;4.70;73.50
74294;DHT22;64044;59.904;10.738;2022-12-29T09:28:48;4.80;73.50
74294;DHT22;64044;59.904;10.738;2022-12-29T09:31:14;4.80;73.50
74294;DHT22;64044;59.904;10.738;2022-12-29T09:33:40;4.80;73.70
74294;DHT22;64044;59.904;10.738;2022-12-29T09:36:06;4.80;73.60
74294;DHT22;64044;59.904;10.738;2022-12-29T09:38:32;4.90;73.60
74294;DHT22;64044;59.904;10.738;2022-12-29T09:41:21;4.90;73.60
74294;DHT22;64044;59.904;10.738;2022-12-29T09:46:34;4.90;73.50
74294;DHT22;64044;59.904;10.738;2022-12-29T09:49:46;4.90;73.90
74294;DHT22;64044;59.904;10.738;2022-12-29T09:51:50;5.00;73.60
74294;DHT22;64044;59.904;10.738;2022-12-29T09:57:00;5.00;73.50
74294;DHT22;64044;59.904;10.738;2022-12-29T09:59:38;5.10;73.60
74294;DHT22;64044;59.904;10.738;2022-12-29T10:02:31;5.10;74.10
74294;DHT22;64044;59.904;10.738;2022-12-29T10:04:58;5.10;74.30
74294;DHT22;64044;59.904;10.738;2022-12-29T10:07:45;5.10;73.80
74294;DHT22;64044;59.904;10.738;2022-12-29T10:13:28;5.20;74.30
74294;DHT22;64044;59.904;10.738;2022-12-29T10:23:56;5.30;73.90
74294;DHT22;64044;59.904;10.738;2022-12-29T10:26:27;5.40;73.90
74294;DHT22;64044;59.904;10.738;2022-12-29T10:29:05;5.40;73.90
74294;DHT22;64044;59.904;10.738;2022-12-29T10:37:09;5.40;73.80
74294;DHT22;64044;59.904;10.738;2022-12-29T10:39:41;5.50;73.80
74294;DHT22;64044;59.904;10.738;2022-12-29T10:42:25;5.50;73.90
74294;DHT22;64044;59.904;10.738;2022-12-29T10:44:52;5.50;74.20
74294;DHT22;64044;59.904;10.738;2022-12-29T10:47:25;5.50;74.00
74294;DHT22;64044;59.904;10.738;2022-12-29T10:49:51;5.50;74.10
74294;DHT22;64044;59.904;10.738;2022-12-29T10:52:19;5.60;74.10
74294;DHT22;64044;59.904;10.738;2022-12-29T10:55:12;5.60;74.10
74294;DHT22;64044;59.904;10.738;2022-12-29T10:57:42;5.60;74.20
74294;DHT22;64044;59.904;10.738;2022-12-29T11:00:18;5.60;74.00
74294;DHT22;64044;59.904;10.738;2022-12-29T11:05:57;5.70;74.30
74294;DHT22;64044;59.904;10.738;2022-12-29T11:08:26;5.70;74.70
74294;DHT22;64044;59.904;10.738;2022-12-29T11:11:01;5.70;75.00
74294;DHT22;64044;59.904;10.738;2022-12-29T11:13:30;5.70;74.10
74294;DHT22;64044;59.904;10.738;2022-12-29T11:15:56;5.80;74.10
74294;DHT22;64044;59.904;10.738;2022-12-29T11:18:24;5.80;74.20
74294;DHT22;64044;59.904;10.738;2022-12-29T11:20:56;5.80;74.30
74294;DHT22;64044;59.904;10.738;2022-12-29T11:26:22;5.80;74.50
74294;DHT22;64044;59.904;10.738;2022-12-29T11:31:57;5.90;74.60
74294;DHT22;64044;59.904;10.738;2022-12-29T11:34:34;5.90;74.60
74294;DHT22;64044;59.904;10.738;2022-12-29T11:37:06;5.90;74.20
74294;DHT22;64044;59.904;10.738;2022-12-29T11:42:04;5.90;74.20
74294;DHT22;64044;59.904;10.738;2022-12-29T11:44:37;5.90;74.30
74294;DHT22;64044;59.904;10.738;2022-12-29T11:47:09;5.90;74.40
74294;DHT22;64044;59.904;10.738;2022-12-29T11:49:38;6.00;74.50
74294;DHT22;64044;59.904;10.738;2022-12-29T11:52:04;5.90;74.40
74294;DHT22;64044;59.904;10.738;2022-12-29T11:54:33;5.90;74.40
74294;DHT22;64044;59.904;10.738;2022-12-29T11:57:12;6.00;74.40
74294;DHT22;64044;59.904;10.738;2022-12-29T11:59:54;6.00;74.50
74294;DHT22;64044;59.904;10.738;2022-12-29T12:02:44;6.00;74.40
74294;DHT22;64044;59.904;10.738;2022-12-29T12:05:13;6.00;74.70
74294;DHT22;64044;59.904;10.738;2022-12-29T12:07:43;6.00;74.20
74294;DHT22;64044;59.904;10.738;2022-12-29T12:10:20;6.00;74.20
74294;DHT22;64044;59.904;10.738;2022-12-29T12:16:26;6.00;74.10
74294;DHT22;64044;59.904;10.738;2022-12-29T12:19:09;6.10;74.20
74294;DHT22;64044;59.904;10.738;2022-12-29T12:21:43;6.00;74.20
74294;DHT22;64044;59.904;10.738;2022-12-29T12:27:07;6.00;74.00
74294;DHT22;64044;59.904;10.738;2022-12-29T12:30:02;6.00;74.20
74294;DHT22;64044;59.904;10.738;2022-12-29T13:06:50;5.70;74.50
74294;DHT22;64044;59.904;10.738;2022-12-29T13:20:42;5.70;75.50
74294;DHT22;64044;59.904;10.738;2022-12-29T13:26:28;5.70;75.10
74294;DHT22;64044;59.904;10.738;2022-12-29T13:32:42;5.70;75.70
74294;DHT22;64044;59.904;10.738;2022-12-29T13:38:23;5.70;75.40
74294;DHT22;64044;59.904;10.738;2022-12-29T13:40:55;5.70;75.40
74294;DHT22;64044;59.904;10.738;2022-12-29T13:43:22;5.70;75.20
74294;DHT22;64044;59.904;10.738;2022-12-29T13:45:56;5.70;75.20
74294;DHT22;64044;59.904;10.738;2022-12-29T13:51:15;5.70;75.40
74294;DHT22;64044;59.904;10.738;2022-12-29T14:02:26;5.80;75.60
74294;DHT22;64044;59.904;10.738;2022-12-29T14:05:01;5.80;75.30
74294;DHT22;64044;59.904;10.738;2022-12-29T14:07:27;5.80;75.70
74294;DHT22;64044;59.904;10.738;2022-12-29T14:09:55;5.80;75.50
74294;DHT22;64044;59.904;10.738;2022-12-29T14:17:35;5.60;76.00
74294;DHT22;64044;59.904;10.738;2022-12-29T14:20:02;5.60;75.90
74294;DHT22;64044;59.904;10.738;2022-12-29T14:22:29;5.60;75.90
74294;DHT22;64044;59.904;10.738;2022-12-29T14:24:55;5.50;76.00
74294;DHT22;64044;59.904;10.738;2022-12-29T14:29:48;5.40;75.80
74294;DHT22;64044;59.904;10.738;2022-12-29T14:34:55;5.40;76.20
74294;DHT22;64044;59.904;10.738;2022-12-29T14:37:27;5.40;76.00
74294;DHT22;64044;59.904;10.738;2022-12-29T14:40:18;5.40;76.00
74294;DHT22;64044;59.904;10.738;2022-12-29T14:42:48;5.30;76.70
74294;DHT22;64044;59.904;10.738;2022-12-29T14:47:48;5.30;75.60
74294;DHT22;64044;59.904;10.738;2022-12-29T14:57:52;5.10;77.20
74294;DHT22;64044;59.904;10.738;2022-12-29T15:00:22;5.00;77.00
74294;DHT22;64044;59.904;10.738;2022-12-29T15:02:59;5.10;78.00
74294;DHT22;64044;59.904;10.738;2022-12-29T15:05:32;5.00;78.00
74294;DHT22;64044;59.904;10.738;2022-12-29T15:07:58;5.00;78.00
74294;DHT22;64044;59.904;10.738;2022-12-29T15:10:26;5.00;78.20
74294;DHT22;64044;59.904;10.738;2022-12-29T15:13:03;5.00;78.30
74294;DHT22;64044;59.904;10.738;2022-12-29T15:15:37;5.00;78.00
74294;DHT22;64044;59.904;10.738;2022-12-29T15:18:23;4.90;78.60
74294;DHT22;64044;59.904;10.738;2022-12-29T15:21:04;5.00;78.40
74294;DHT22;64044;59.904;10.738;2022-12-29T15:23:32;5.00;78.40
74294;DHT22;64044;59.904;10.738;2022-12-29T15:26:00;4.90;78.20
74294;DHT22;64044;59.904;10.738;2022-12-29T15:28:27;4.90;79.00
74294;DHT22;64044;59.904;10.738;2022-12-29T15:31:03;4.90;78.10
74294;DHT22;64044;59.904;10.738;2022-12-29T15:33:30;4.90;78.30
74294;DHT22;64044;59.904;10.738;2022-12-29T15:35:57;4.90;78.00
74294;DHT22;64044;59.904;10.738;2022-12-29T15:38:29;4.90;77.90
74294;DHT22;64044;59.904;10.738;2022-12-29T15:40:59;5.00;78.10
74294;DHT22;64044;59.904;10.738;2022-12-29T15:46:18;5.00;78.20
74294;DHT22;64044;59.904;10.738;2022-12-29T15:48:44;5.00;77.90
74294;DHT22;64044;59.904;10.738;2022-12-29T15:51:38;5.00;77.70
74294;DHT22;64044;59.904;10.738;2022-12-29T15:54:05;5.00;78.20
74294;DHT22;64044;59.904;10.738;2022-12-29T15:56:32;5.10;77.80
74294;DHT22;64044;59.904;10.738;2022-12-29T15:59:00;5.00;78.20
74294;DHT22;64044;59.904;10.738;2022-12-29T16:01:31;5.10;78.70
74294;DHT22;64044;59.904;10.738;2022-12-29T16:03:59;5.10;78.90
74294;DHT22;64044;59.904;10.738;2022-12-29T16:06:27;5.10;78.90
74294;DHT22;64044;59.904;10.738;2022-12-29T16:09:15;5.10;78.90
74294;DHT22;64044;59.904;10.738;2022-12-29T16:11:56;5.10;79.00
74294;DHT22;64044;59.904;10.738;2022-12-29T16:14:41;5.10;78.60
74294;DHT22;64044;59.904;10.738;2022-12-29T16:17:21;5.10;78.80
74294;DHT22;64044;59.904;10.738;2022-12-29T16:20:14;5.10;78.80
74294;DHT22;64044;59.904;10.738;2022-12-29T16:23:09;5.00;78.80
74294;DHT22;64044;59.904;10.738;2022-12-29T16:25:41;5.00;79.00
74294;DHT22;64044;59.904;10.738;2022-12-29T16:28:22;5.10;78.40
74294;DHT22;64044;59.904;10.738;2022-12-29T16:30:56;5.10;78.70
74294;DHT22;64044;59.904;10.738;2022-12-29T16:33:45;5.10;79.50
74294;DHT22;64044;59.904;10.738;2022-12-29T16:36:33;5.10;78.40
74294;DHT22;64044;59.904;10.738;2022-12-29T16:39:20;5.00;78.10
74294;DHT22;64044;59.904;10.738;2022-12-29T16:41:50;5.10;78.30
74294;DHT22;64044;59.904;10.738;2022-12-29T16:44:27;5.10;78.00
74294;DHT22;64044;59.904;10.738;2022-12-29T16:49:39;5.10;78.40
74294;DHT22;64044;59.904;10.738;2022-12-29T16:52:30;5.10;78.00
74294;DHT22;64044;59.904;10.738;2022-12-29T16:54:59;5.10;78.40
74294;DHT22;64044;59.904;10.738;2022-12-29T16:57:31;5.10;77.90
74294;DHT22;64044;59.904;10.738;2022-12-29T17:00:05;5.20;77.90
74294;DHT22;64044;59.904;10.738;2022-12-29T17:02:32;5.10;77.80
74294;DHT22;64044;59.904;10.738;2022-12-29T17:04:58;5.20;77.70
74294;DHT22;64044;59.904;10.738;2022-12-29T17:07:26;5.20;77.60
74294;DHT22;64044;59.904;10.738;2022-12-29T17:09:53;5.20;77.60
74294;DHT22;64044;59.904;10.738;2022-12-29T17:12:25;5.20;77.50
74294;DHT22;64044;59.904;10.738;2022-12-29T17:17:47;5.30;77.70
74294;DHT22;64044;59.904;10.738;2022-12-29T17:22:45;5.40;77.60
74294;DHT22;64044;59.904;10.738;2022-12-29T17:25:16;5.40;77.40
74294;DHT22;64044;59.904;10.738;2022-12-29T17:30:15;5.40;77.70
74294;DHT22;64044;59.904;10.738;2022-12-29T17:32:41;5.40;77.70
74294;DHT22;64044;59.904;10.738;2022-12-29T17:35:18;5.50;78.00
74294;DHT22;64044;59.904;10.738;2022-12-29T17:37:44;5.50;77.40
74294;DHT22;64044;59.904;10.738;2022-12-29T17:40:14;5.50;77.20
74294;DHT22;64044;59.904;10.738;2022-12-29T17:42:43;5.50;77.40
74294;DHT22;64044;59.904;10.738;2022-12-29T17:45:17;5.50;77.80
74294;DHT22;64044;59.904;10.738;2022-12-29T17:47:45;5.50;78.20
74294;DHT22;64044;59.904;10.738;2022-12-29T17:50:16;5.50;78.10
74294;DHT22;64044;59.904;10.738;2022-12-29T17:52:44;5.50;78.10
74294;DHT22;64044;59.904;10.738;2022-12-29T17:55:16;5.50;78.10
74294;DHT22;64044;59.904;10.738;2022-12-29T17:57:42;5.60;78.60
74294;DHT22;64044;59.904;10.738;2022-12-29T18:00:17;5.60;79.80
74294;DHT22;64044;59.904;10.738;2022-12-29T18:02:43;5.60;78.60
74294;DHT22;64044;59.904;10.738;2022-12-29T18:05:16;5.70;78.40
74294;DHT22;64044;59.904;10.738;2022-12-29T18:07:42;5.60;78.90
74294;DHT22;64044;59.904;10.738;2022-12-29T18:10:08;5.70;78.80
74294;DHT22;64044;59.904;10.738;2022-12-29T18:12:39;5.70;78.70
74294;DHT22;64044;59.904;10.738;2022-12-29T18:15:09;5.70;78.80
74294;DHT22;64044;59.904;10.738;2022-12-29T18:17:40;5.80;78.80
74294;DHT22;64044;59.904;10.738;2022-12-29T18:20:06;5.80;78.80
74294;DHT22;64044;59.904;10.738;2022-12-29T18:22:32;5.90;78.90
74294;DHT22;64044;59.904;10.738;2022-12-29T18:24:57;5.90;78.70
74294;DHT22;64044;59.904;10.738;2022-12-29T18:27:25;5.90;78.70
74294;DHT22;64044;59.904;10.738;2022-12-29T18:29:50;6.00;78.60
74294;DHT22;64044;59.904;10.738;2022-12-29T18:32:16;6.00;78.60
74294;DHT22;64044;59.904;10.738;2022-12-29T18:34:42;6.00;78.60
74294;DHT22;64044;59.904;10.738;2022-12-29T18:37:09;6.10;78.50
74294;DHT22;64044;59.904;10.738;2022-12-29T18:39:35;6.10;78.40
74294;DHT22;64044;59.904;10.738;2022-12-29T18:42:03;6.20;78.50
74294;DHT22;64044;59.904;10.738;2022-12-29T18:44:29;6.20;78.50
74294;DHT22;64044;59.904;10.738;2022-12-29T18:46:54;6.20;78.60
74294;DHT22;64044;59.904;10.738;2022-12-29T18:49:20;6.30;78.70
74294;DHT22;64044;59.904;10.738;2022-12-29T18:51:46;6.30;78.50
74294;DHT22;64044;59.904;10.738;2022-12-29T18:54:30;6.30;78.30
74294;DHT22;64044;59.904;10.738;2022-12-29T18:56:56;6.40;78.60
74294;DHT22;64044;59.904;10.738;2022-12-29T18:59:22;6.40;78.30